createdAt,value
2022-10-11T00:00:16.072Z,6.17
2022-10-11T00:02:42.949Z,6.14
2022-10-11T00:05:10.506Z,6.11
2022-10-11T00:07:38.576Z,6.09
2022-10-11T00:10:07.531Z,6.10
2022-10-11T00:12:34.626Z,6.05
2022-10-11T00:15:01.827Z,6.04
2022-10-11T00:17:28.743Z,6.03
2022-10-11T00:19:55.699Z,6.00
2022-10-11T00:22:22.578Z,5.98
2022-10-11T00:24:49.472Z,5.96
2022-10-11T00:27:16.367Z,5.94
2022-10-11T00:29:43.231Z,5.96
2022-10-11T00:32:10.098Z,5.94
2022-10-11T00:34:36.982Z,5.93
2022-10-11T00:37:03.930Z,5.93
2022-10-11T00:39:30.870Z,5.91
2022-10-11T00:41:57.772Z,5.84
2022-10-11T00:44:28.927Z,5.84
2022-10-11T00:47:02.297Z,5.80
2022-10-11T00:49:38.751Z,5.81
2022-10-11T00:52:16.132Z,5.77
2022-10-11T00:54:46.106Z,5.77
2022-10-11T00:57:18.919Z,5.72
2022-10-11T00:59:51.399Z,5.71
2022-10-11T01:02:19.955Z,5.70
2022-10-11T01:04:47.036Z,5.66
2022-10-11T01:07:14.168Z,5.62
2022-10-11T01:09:41.218Z,5.64
2022-10-11T01:12:21.685Z,5.60
2022-10-11T01:15:31.503Z,5.57
2022-10-11T01:18:19.410Z,5.56
2022-10-11T01:20:58.269Z,5.57
2022-10-11T01:23:54.516Z,5.55
2022-10-11T01:27:16.744Z,5.55
2022-10-11T01:30:01.737Z,5.53
2022-10-11T01:32:44.292Z,5.50
2022-10-11T01:35:22.008Z,5.44
2022-10-11T01:38:07.045Z,5.46
2022-10-11T01:40:47.182Z,5.44
2022-10-11T01:43:15.567Z,5.44
2022-10-11T01:45:43.851Z,5.43
2022-10-11T01:48:14.024Z,5.42
2022-10-11T01:50:54.249Z,5.41
2022-10-11T01:53:58.296Z,5.37
2022-10-11T01:56:55.136Z,5.35
2022-10-11T01:59:42.284Z,5.35
2022-10-11T02:02:52.897Z,5.33
2022-10-11T02:05:29.042Z,5.31
2022-10-11T02:08:09.482Z,5.32
2022-10-11T02:10:51.420Z,5.32
2022-10-11T02:13:36.405Z,5.26
2022-10-11T02:16:11.167Z,5.27
2022-10-11T02:18:42.986Z,5.26
2022-10-11T02:21:17.306Z,5.24
2022-10-11T02:24:00.414Z,5.24
2022-10-11T02:26:32.212Z,5.27
2022-10-11T02:29:04.320Z,5.28
2022-10-11T02:31:35.404Z,5.25
2022-10-11T02:34:27.934Z,5.23
2022-10-11T02:37:36.760Z,5.26
2022-10-11T02:40:25.032Z,5.28
2022-10-11T02:43:01.532Z,5.27
2022-10-11T02:45:53.263Z,5.26
2022-10-11T02:48:20.375Z,5.25
2022-10-11T02:50:47.844Z,5.24
2022-10-11T02:53:14.756Z,5.22
2022-10-11T02:55:41.628Z,5.20
2022-10-11T02:58:08.516Z,5.16
2022-10-11T03:00:35.433Z,5.14
2022-10-11T03:03:02.292Z,5.14
2022-10-11T03:05:29.212Z,5.12
2022-10-11T03:07:56.087Z,5.13
2022-10-11T03:10:23.028Z,5.10
2022-10-11T03:12:50.501Z,5.09
2022-10-11T03:15:17.394Z,5.10
2022-10-11T03:17:44.293Z,5.12
2022-10-11T03:20:11.465Z,5.12
2022-10-11T03:22:38.552Z,5.13
2022-10-11T03:25:05.868Z,5.09
2022-10-11T03:27:34.106Z,5.08
2022-10-11T03:30:01.411Z,5.10
2022-10-11T03:32:29.000Z,5.14
2022-10-11T03:34:56.111Z,5.09
2022-10-11T03:37:23.058Z,5.11
2022-10-11T03:39:50.211Z,5.07
2022-10-11T03:42:17.200Z,5.05
2022-10-11T03:44:44.064Z,5.07
2022-10-11T03:47:11.134Z,5.05
2022-10-11T03:49:43.283Z,5.06
2022-10-11T03:52:10.887Z,5.02
2022-10-11T03:54:37.809Z,4.97
2022-10-11T03:57:04.876Z,4.93
2022-10-11T03:59:31.882Z,4.96
2022-10-11T04:01:59.210Z,4.97
2022-10-11T04:04:26.225Z,4.96
2022-10-11T04:06:53.458Z,4.98
2022-10-11T04:09:20.452Z,4.98
2022-10-11T04:11:47.391Z,4.97
2022-10-11T04:14:14.503Z,4.93
2022-10-11T04:16:41.861Z,4.92
2022-10-11T04:19:09.262Z,4.93
2022-10-11T04:21:36.136Z,4.92
2022-10-11T04:24:03.124Z,4.90
2022-10-11T04:26:30.088Z,4.86
2022-10-11T04:28:57.033Z,4.86
2022-10-11T04:31:24.064Z,4.83
2022-10-11T04:33:51.116Z,4.85
2022-10-11T04:36:18.079Z,4.81
2022-10-11T04:38:44.996Z,4.82
2022-10-11T04:41:15.045Z,4.78
2022-10-11T04:43:42.552Z,4.71
2022-10-11T04:46:11.196Z,4.73
2022-10-11T04:48:38.415Z,4.72
2022-10-11T04:51:05.563Z,4.72
2022-10-11T04:53:32.576Z,4.72
2022-10-11T04:56:03.515Z,4.70
2022-10-11T04:58:32.456Z,4.69
2022-10-11T05:00:59.403Z,4.75
2022-10-11T05:03:27.076Z,4.75
2022-10-11T05:05:54.200Z,4.80
2022-10-11T05:08:24.946Z,4.82
2022-10-11T05:11:07.041Z,4.81
2022-10-11T05:13:35.742Z,4.83
2022-10-11T05:16:08.240Z,4.85
2022-10-11T05:18:37.723Z,4.90
2022-10-11T05:21:19.801Z,4.90
2022-10-11T05:23:48.687Z,4.93
2022-10-11T05:26:16.804Z,4.96
2022-10-11T05:28:44.457Z,5.00
2022-10-11T05:31:12.036Z,5.01
2022-10-11T05:33:38.965Z,5.00
2022-10-11T05:36:07.540Z,5.02
2022-10-11T05:38:35.123Z,5.02
2022-10-11T05:41:03.962Z,4.99
2022-10-11T05:43:31.341Z,5.00
2022-10-11T05:45:58.941Z,5.00
2022-10-11T05:48:26.737Z,5.01
2022-10-11T05:50:59.791Z,5.02
2022-10-11T05:53:27.147Z,5.00
2022-10-11T05:55:54.067Z,4.97
2022-10-11T05:58:20.997Z,4.99
2022-10-11T06:00:47.999Z,4.98
2022-10-11T06:03:15.426Z,4.97
2022-10-11T06:05:42.493Z,4.97
2022-10-11T06:08:10.670Z,4.97
2022-10-11T06:10:38.700Z,4.98
2022-10-11T06:13:06.348Z,4.97
2022-10-11T06:15:34.023Z,5.00
2022-10-11T06:18:01.075Z,5.02
2022-10-11T06:20:28.414Z,5.05
2022-10-11T06:22:55.412Z,5.04
2022-10-11T06:25:22.511Z,5.04
2022-10-11T06:27:49.409Z,5.06
2022-10-11T06:30:16.393Z,5.10
2022-10-11T06:32:43.253Z,5.13
2022-10-11T06:35:10.304Z,5.16
2022-10-11T06:37:37.191Z,5.18
2022-10-11T06:40:04.537Z,5.22
2022-10-11T06:42:31.401Z,5.27
2022-10-11T06:44:58.319Z,5.31
2022-10-11T06:47:25.216Z,5.39
2022-10-11T06:49:52.164Z,5.44
2022-10-11T06:52:19.028Z,5.49
2022-10-11T06:54:45.916Z,5.56
2022-10-11T06:57:13.007Z,5.60
2022-10-11T06:59:39.867Z,5.64
2022-10-11T07:02:07.205Z,5.70
2022-10-11T07:04:34.184Z,5.73
2022-10-11T07:07:01.371Z,5.76
2022-10-11T07:09:28.452Z,5.78
2022-10-11T07:11:55.594Z,5.82
2022-10-11T07:14:22.483Z,5.87
2022-10-11T07:16:49.375Z,5.93
2022-10-11T07:19:16.468Z,5.96
2022-10-11T07:21:43.365Z,6.00
2022-10-11T07:24:10.383Z,6.05
2022-10-11T07:26:38.191Z,6.10
2022-10-11T07:29:08.886Z,6.16
2022-10-11T07:31:39.487Z,6.23
2022-10-11T07:34:07.174Z,6.30
2022-10-11T07:36:34.258Z,6.38
2022-10-11T07:39:02.855Z,6.43
2022-10-11T07:41:29.722Z,6.51
2022-10-11T07:43:56.596Z,6.57
2022-10-11T07:46:23.511Z,6.66
2022-10-11T07:48:50.409Z,6.72
2022-10-11T07:51:23.508Z,6.77
2022-10-11T07:53:54.103Z,6.84
2022-10-11T07:56:27.231Z,6.90
2022-10-11T07:59:00.149Z,6.95
2022-10-11T08:01:28.447Z,6.95
2022-10-11T08:03:59.437Z,7.03
2022-10-11T08:06:32.214Z,7.02
2022-10-11T08:09:00.993Z,7.06
2022-10-11T08:11:32.092Z,7.10
2022-10-11T08:14:00.489Z,7.17
2022-10-11T08:16:27.468Z,7.21
2022-10-11T08:18:56.822Z,7.29
2022-10-11T08:21:24.370Z,7.37
2022-10-11T08:23:51.238Z,7.48
2022-10-11T08:26:18.403Z,7.52
2022-10-11T08:28:45.471Z,7.61
2022-10-11T08:31:15.250Z,7.76
2022-10-11T08:33:42.789Z,7.93
2022-10-11T08:36:11.017Z,8.00
2022-10-11T08:38:38.668Z,8.10
2022-10-11T08:41:27.386Z,8.19
2022-10-11T08:44:51.856Z,8.27
2022-10-11T08:47:42.341Z,8.34
2022-10-11T08:50:20.003Z,8.39
2022-10-11T08:53:38.184Z,8.56
2022-10-11T08:56:06.431Z,8.66
2022-10-11T08:59:11.139Z,8.75
2022-10-11T09:01:46.936Z,8.83
2022-10-11T09:04:16.213Z,9.08
2022-10-11T09:06:55.400Z,9.09
2022-10-11T09:09:46.638Z,9.17
2022-10-11T09:12:27.112Z,9.25
2022-10-11T09:15:27.752Z,9.48
2022-10-11T09:18:29.813Z,9.57
2022-10-11T09:21:33.351Z,9.72
2022-10-11T09:24:28.519Z,9.94
2022-10-11T09:26:59.712Z,10.30
2022-10-11T09:29:59.807Z,10.61
2022-10-11T09:32:34.853Z,11.24
2022-10-11T09:35:20.994Z,11.52
2022-10-11T09:38:06.036Z,11.78
2022-10-11T09:40:58.612Z,11.97
2022-10-11T09:43:25.740Z,12.13
2022-10-11T09:45:52.630Z,12.21
2022-10-11T09:48:32.523Z,12.37
2022-10-11T09:51:06.772Z,12.50
2022-10-11T09:53:58.564Z,12.70
2022-10-11T09:56:29.562Z,12.76
2022-10-11T09:59:32.187Z,12.85
2022-10-11T10:02:17.039Z,12.83
2022-10-11T10:05:15.713Z,12.89
2022-10-11T10:08:09.748Z,12.97
2022-10-11T10:10:42.779Z,13.17
2022-10-11T10:13:51.158Z,13.42
2022-10-11T10:16:27.051Z,13.55
2022-10-11T10:18:59.004Z,13.52
2022-10-11T10:21:43.709Z,13.54
2022-10-11T10:24:35.795Z,13.62
2022-10-11T10:27:21.351Z,13.55
2022-10-11T10:30:10.203Z,13.70
2022-10-11T10:33:08.854Z,14.18
2022-10-11T10:35:43.172Z,14.75
2022-10-11T10:38:27.544Z,15.22
2022-10-11T10:41:08.769Z,15.72
2022-10-11T10:43:41.874Z,16.14
2022-10-11T10:46:30.361Z,16.58
2022-10-11T10:49:41.511Z,17.05
2022-10-11T10:52:56.037Z,17.40
2022-10-11T10:55:44.483Z,17.63
2022-10-11T10:58:33.336Z,18.05
2022-10-11T11:01:23.858Z,18.45
2022-10-11T11:04:12.576Z,18.65
2022-10-11T11:06:55.335Z,18.46
2022-10-11T11:09:55.185Z,18.48
2022-10-11T11:13:12.601Z,18.09
2022-10-11T11:16:08.818Z,17.74
2022-10-11T11:19:08.816Z,17.52
2022-10-11T11:22:15.055Z,17.37
2022-10-11T11:25:07.604Z,16.61
2022-10-11T11:27:49.652Z,16.41
2022-10-11T11:30:46.868Z,16.10
2022-10-11T11:33:48.632Z,15.77
2022-10-11T11:36:28.085Z,15.36
2022-10-11T11:39:07.364Z,15.24
2022-10-11T11:41:41.147Z,15.20
2022-10-11T11:44:37.922Z,15.08
2022-10-11T11:47:33.133Z,14.93
2022-10-11T11:50:25.082Z,14.73
2022-10-11T11:53:04.979Z,14.67
2022-10-11T11:56:02.136Z,14.70
2022-10-11T11:59:22.225Z,14.61
2022-10-11T12:02:23.380Z,14.56
2022-10-11T12:04:51.793Z,14.53
2022-10-11T12:07:23.142Z,14.50
2022-10-11T12:10:16.613Z,14.46
2022-10-11T12:12:43.823Z,14.44
2022-10-11T12:15:10.634Z,14.47
2022-10-11T12:17:58.397Z,14.58
2022-10-11T12:20:27.300Z,14.64
2022-10-11T12:23:05.135Z,14.68
2022-10-11T12:25:39.548Z,14.68
2022-10-11T12:28:37.535Z,14.77
2022-10-11T12:31:17.496Z,14.88
2022-10-11T12:33:47.157Z,14.90
2022-10-11T12:36:31.712Z,15.06
2022-10-11T12:39:20.185Z,15.19
2022-10-11T12:41:50.155Z,15.32
2022-10-11T12:44:20.387Z,15.31
2022-10-11T12:46:53.605Z,15.36
2022-10-11T12:49:48.540Z,15.39
2022-10-11T12:52:18.219Z,15.38
2022-10-11T12:55:18.073Z,15.37
2022-10-11T12:58:22.275Z,15.22
2022-10-11T13:00:52.238Z,15.17
2022-10-11T13:03:43.581Z,15.22
2022-10-11T13:06:45.339Z,15.34
2022-10-11T13:09:21.011Z,15.53
2022-10-11T13:12:01.058Z,15.51
2022-10-11T13:14:34.000Z,15.63
2022-10-11T13:17:03.831Z,15.64
2022-10-11T13:19:33.964Z,15.79
2022-10-11T13:22:13.111Z,15.88
2022-10-11T13:24:41.143Z,15.89
2022-10-11T13:27:30.118Z,15.78
2022-10-11T13:30:02.191Z,15.79
2022-10-11T13:32:31.328Z,15.64
2022-10-11T13:35:06.548Z,15.54
2022-10-11T13:37:44.692Z,15.47
2022-10-11T13:40:17.733Z,15.50
2022-10-11T13:42:45.894Z,15.37
2022-10-11T13:45:16.497Z,15.25
2022-10-11T13:47:44.368Z,15.16
2022-10-11T13:50:31.688Z,15.20
2022-10-11T13:53:07.904Z,15.08
2022-10-11T13:55:58.682Z,15.06
2022-10-11T13:58:46.272Z,14.95
2022-10-11T14:01:27.829Z,14.93
2022-10-11T14:04:05.644Z,14.92
2022-10-11T14:07:02.295Z,14.90
2022-10-11T14:09:39.058Z,14.89
2022-10-11T14:12:33.583Z,14.87
2022-10-11T14:15:04.145Z,14.86
2022-10-11T14:17:44.770Z,14.87
2022-10-11T14:20:12.067Z,14.94
2022-10-11T14:22:39.336Z,14.97
2022-10-11T14:25:06.614Z,15.03
2022-10-11T14:27:33.540Z,15.05
2022-10-11T14:30:24.603Z,15.12
2022-10-11T14:32:50.999Z,15.17
2022-10-11T14:35:27.811Z,15.26
2022-10-11T14:37:55.272Z,15.25
2022-10-11T14:40:28.823Z,15.32
2022-10-11T14:42:56.535Z,15.30
2022-10-11T14:45:23.576Z,15.38
2022-10-11T14:47:50.964Z,15.43
2022-10-11T14:50:31.852Z,15.42
2022-10-11T14:52:58.957Z,15.42
2022-10-11T14:55:26.376Z,15.44
2022-10-11T14:57:53.375Z,15.44
2022-10-11T15:00:26.008Z,15.43
2022-10-11T15:02:53.856Z,15.36
2022-10-11T15:05:23.588Z,15.42
2022-10-11T15:07:50.974Z,15.48
2022-10-11T15:10:28.454Z,15.43
2022-10-11T15:12:56.675Z,15.36
2022-10-11T15:15:30.379Z,15.29
2022-10-11T15:17:59.938Z,15.29
2022-10-11T15:20:35.855Z,15.15
2022-10-11T15:23:04.232Z,15.18
2022-10-11T15:25:31.905Z,15.11
2022-10-11T15:27:58.856Z,15.09
2022-10-11T15:30:31.140Z,15.09
2022-10-11T15:32:58.549Z,14.97
2022-10-11T15:35:27.136Z,14.98
2022-10-11T15:37:57.484Z,14.93
2022-10-11T15:40:32.052Z,14.94
2022-10-11T15:42:59.066Z,14.87
2022-10-11T15:45:27.090Z,14.87
2022-10-11T15:47:54.121Z,14.84
2022-10-11T15:50:41.358Z,14.84
2022-10-11T15:53:12.565Z,14.78
2022-10-11T15:55:43.861Z,14.71
2022-10-11T15:58:21.098Z,14.68
2022-10-11T16:00:50.756Z,14.67
2022-10-11T16:03:18.369Z,14.55
2022-10-11T16:05:45.335Z,14.54
2022-10-11T16:08:12.464Z,14.49
2022-10-11T16:10:41.153Z,14.44
2022-10-11T16:13:09.391Z,14.35
2022-10-11T16:15:39.572Z,14.23
2022-10-11T16:18:08.052Z,14.17
2022-10-11T16:20:39.736Z,14.12
2022-10-11T16:23:07.269Z,14.03
2022-10-11T16:25:35.321Z,13.96
2022-10-11T16:28:02.638Z,13.85
2022-10-11T16:30:29.628Z,13.82
2022-10-11T16:32:56.564Z,13.73
2022-10-11T16:35:23.970Z,13.65
2022-10-11T16:37:50.840Z,13.58
2022-10-11T16:40:20.217Z,13.50
2022-10-11T16:42:48.244Z,13.35
2022-10-11T16:45:16.491Z,13.34
2022-10-11T16:47:44.250Z,13.16
2022-10-11T16:50:12.175Z,13.08
2022-10-11T16:52:39.429Z,13.08
2022-10-11T16:55:07.031Z,12.90
2022-10-11T16:57:36.127Z,12.83
2022-10-11T17:00:04.941Z,12.82
2022-10-11T17:02:32.682Z,12.72
2022-10-11T17:04:59.737Z,12.62
2022-10-11T17:07:27.085Z,12.63
2022-10-11T17:09:54.071Z,12.50
2022-10-11T17:12:24.058Z,12.44
2022-10-11T17:14:51.864Z,12.42
2022-10-11T17:17:19.686Z,12.40
2022-10-11T17:19:47.597Z,12.32
2022-10-11T17:22:19.306Z,12.29
2022-10-11T17:24:46.397Z,12.24
2022-10-11T17:27:13.979Z,12.20
2022-10-11T17:29:41.390Z,12.14
2022-10-11T17:32:08.753Z,12.09
2022-10-11T17:34:35.993Z,12.04
2022-10-11T17:37:03.185Z,11.98
2022-10-11T17:39:30.143Z,11.95
2022-10-11T17:41:57.036Z,11.92
2022-10-11T17:44:23.935Z,11.88
2022-10-11T17:46:51.143Z,11.87
2022-10-11T17:49:18.234Z,11.83
2022-10-11T17:51:45.317Z,11.80
2022-10-11T17:54:12.827Z,11.79
2022-10-11T17:56:41.564Z,11.76
2022-10-11T17:59:15.594Z,11.70
2022-10-11T18:01:42.788Z,11.64
2022-10-11T18:04:16.328Z,11.60
2022-10-11T18:06:45.532Z,11.60
2022-10-11T18:09:16.223Z,11.57
2022-10-11T18:11:43.734Z,11.56
2022-10-11T18:14:10.764Z,11.55
2022-10-11T18:16:39.499Z,11.54
2022-10-11T18:19:10.817Z,11.51
2022-10-11T18:21:38.760Z,11.51
2022-10-11T18:24:11.288Z,11.49
2022-10-11T18:26:38.548Z,11.46
2022-10-11T18:29:05.853Z,11.47
2022-10-11T18:31:35.118Z,11.42
2022-10-11T18:34:04.714Z,11.39
2022-10-11T18:36:32.993Z,11.39
2022-10-11T18:39:04.072Z,11.39
2022-10-11T18:41:33.070Z,11.36
2022-10-11T18:44:06.579Z,11.33
2022-10-11T18:46:34.460Z,11.26
2022-10-11T18:49:02.685Z,11.24
2022-10-11T18:51:41.518Z,11.18
2022-10-11T18:54:12.919Z,11.15
2022-10-11T18:56:45.442Z,11.08
2022-10-11T18:59:12.594Z,11.03
2022-10-11T19:01:44.283Z,10.97
2022-10-11T19:04:15.934Z,10.91
2022-10-11T19:06:47.661Z,10.88
2022-10-11T19:09:22.346Z,10.84
2022-10-11T19:11:52.097Z,10.77
2022-10-11T19:14:23.075Z,10.73
2022-10-11T19:16:51.432Z,10.68
2022-10-11T19:19:27.517Z,10.64
2022-10-11T19:21:54.775Z,10.56
2022-10-11T19:24:24.751Z,10.53
2022-10-11T19:26:53.012Z,10.46
2022-10-11T19:29:23.430Z,10.41
2022-10-11T19:31:54.312Z,10.35
2022-10-11T19:34:22.384Z,10.31
2022-10-11T19:36:53.239Z,10.28
2022-10-11T19:39:22.616Z,10.22
2022-10-11T19:41:50.116Z,10.20
2022-10-11T19:44:17.439Z,10.15
2022-10-11T19:46:51.613Z,10.04
2022-10-11T19:49:22.302Z,10.02
2022-10-11T19:51:49.314Z,10.02
2022-10-11T19:54:16.780Z,9.96
2022-10-11T19:56:44.543Z,9.94
2022-10-11T19:59:13.427Z,9.91
2022-10-11T20:01:41.775Z,9.85
2022-10-11T20:04:27.458Z,9.79
2022-10-11T20:06:58.663Z,9.77
2022-10-11T20:09:30.443Z,9.73
2022-10-11T20:11:58.065Z,9.67
2022-10-11T20:14:25.580Z,9.64
2022-10-11T20:16:52.808Z,9.59
2022-10-11T20:19:19.991Z,9.55
2022-10-11T20:21:47.777Z,9.47
2022-10-11T20:24:14.926Z,9.41
2022-10-11T20:26:41.815Z,9.35
2022-10-11T20:29:08.831Z,9.31
2022-10-11T20:31:41.626Z,9.32
2022-10-11T20:34:10.849Z,9.24
2022-10-11T20:36:37.888Z,9.26
2022-10-11T20:39:06.523Z,9.22
2022-10-11T20:41:40.002Z,9.18
2022-10-11T20:44:12.312Z,9.17
2022-10-11T20:46:40.097Z,9.11
2022-10-11T20:49:10.661Z,9.11
2022-10-11T20:51:40.224Z,9.06
2022-10-11T20:54:07.592Z,8.96
2022-10-11T20:56:35.027Z,8.94
2022-10-11T20:59:02.352Z,8.95
2022-10-11T21:01:40.615Z,8.94
2022-10-11T21:04:19.892Z,8.89
2022-10-11T21:06:50.437Z,8.83
2022-10-11T21:09:17.816Z,8.77
2022-10-11T21:11:44.799Z,8.78
2022-10-11T21:14:11.721Z,8.74
2022-10-11T21:16:38.667Z,8.72
2022-10-11T21:19:06.156Z,8.71
2022-10-11T21:21:33.117Z,8.68
2022-10-11T21:24:01.999Z,8.63
2022-10-11T21:26:30.890Z,8.63
2022-10-11T21:29:01.515Z,8.60
2022-10-11T21:31:33.623Z,8.58
2022-10-11T21:34:02.022Z,8.56
2022-10-11T21:36:28.932Z,8.50
2022-10-11T21:38:56.580Z,8.46
2022-10-11T21:41:26.359Z,8.46
2022-10-11T21:43:54.035Z,8.48
2022-10-11T21:46:47.442Z,8.50
2022-10-11T21:49:14.939Z,8.41
2022-10-11T21:51:42.061Z,8.43
2022-10-11T21:54:09.046Z,8.44
2022-10-11T21:56:36.040Z,8.45
2022-10-11T21:59:05.468Z,8.53
2022-10-11T22:01:36.689Z,8.49
2022-10-11T22:04:07.097Z,8.57
2022-10-11T22:06:35.181Z,8.56
2022-10-11T22:09:03.649Z,8.60
2022-10-11T22:11:30.608Z,8.65
2022-10-11T22:13:57.997Z,8.64
2022-10-11T22:16:25.149Z,8.68
2022-10-11T22:18:54.217Z,8.69
2022-10-11T22:21:23.406Z,8.72
2022-10-11T22:23:52.559Z,8.75
2022-10-11T22:26:23.699Z,8.76
2022-10-11T22:28:50.691Z,8.78
2022-10-11T22:31:21.268Z,8.76
2022-10-11T22:33:48.819Z,8.76
2022-10-11T22:36:19.311Z,8.77
2022-10-11T22:38:46.915Z,8.78
2022-10-11T22:41:13.886Z,8.78
2022-10-11T22:43:40.848Z,8.75
2022-10-11T22:46:07.823Z,8.75
2022-10-11T22:48:35.265Z,8.75
2022-10-11T22:51:02.492Z,8.75
2022-10-11T22:53:30.367Z,8.73
2022-10-11T22:55:57.393Z,8.73
2022-10-11T22:58:24.352Z,8.72
2022-10-11T23:00:51.244Z,8.73
2022-10-11T23:03:18.913Z,8.72
2022-10-11T23:05:57.627Z,8.73
2022-10-11T23:08:25.022Z,8.73
2022-10-11T23:10:52.307Z,8.72
2022-10-11T23:13:19.474Z,8.73
2022-10-11T23:15:46.423Z,8.73
2022-10-11T23:18:14.977Z,8.70
2022-10-11T23:20:41.859Z,8.72
2022-10-11T23:23:08.734Z,8.68
2022-10-11T23:25:35.653Z,8.68
2022-10-11T23:28:02.683Z,8.67
2022-10-11T23:30:30.405Z,8.65
2022-10-11T23:32:57.387Z,8.62
2022-10-11T23:35:24.410Z,8.57
2022-10-11T23:37:54.211Z,8.55
2022-10-11T23:40:21.166Z,8.55
2022-10-11T23:42:48.078Z,8.53
2022-10-11T23:45:15.117Z,8.52
2022-10-11T23:47:42.041Z,8.52
2022-10-11T23:50:09.545Z,8.45
2022-10-11T23:52:36.560Z,8.46
2022-10-11T23:55:04.087Z,8.44
2022-10-11T23:57:31.001Z,8.36
2022-10-11T23:59:57.871Z,8.32
